createdAt,value
2023-05-21T00:00:36.719Z,12.40
2023-05-21T00:01:36.715Z,12.20
2023-05-21T00:02:36.737Z,12.50
2023-05-21T00:03:36.737Z,12.60
2023-05-21T00:04:36.733Z,12.00
2023-05-21T00:05:36.885Z,11.70
2023-05-21T00:06:36.687Z,12.00
2023-05-21T00:07:36.626Z,11.70
2023-05-21T00:08:37.318Z,11.60
2023-05-21T00:09:36.602Z,11.80
2023-05-21T00:10:36.619Z,11.50
2023-05-21T00:11:36.564Z,11.20
2023-05-21T00:12:36.677Z,11.70
2023-05-21T00:13:36.548Z,11.50
2023-05-21T00:14:36.576Z,12.00
2023-05-21T00:15:36.740Z,11.40
2023-05-21T00:16:36.644Z,11.50
2023-05-21T00:17:36.574Z,11.50
2023-05-21T00:18:36.530Z,11.70
2023-05-21T00:19:36.649Z,11.60
2023-05-21T00:20:36.643Z,11.40
2023-05-21T00:21:36.466Z,11.20
2023-05-21T00:22:36.491Z,11.30
2023-05-21T00:23:36.429Z,10.70
2023-05-21T00:24:36.457Z,11.00
2023-05-21T00:25:36.716Z,11.10
2023-05-21T00:26:36.412Z,11.50
2023-05-21T00:27:36.408Z,12.10
2023-05-21T00:28:36.473Z,11.60
2023-05-21T00:29:36.389Z,11.90
2023-05-21T00:30:36.635Z,11.70
2023-05-21T00:31:36.462Z,11.50
2023-05-21T00:32:36.428Z,11.10
2023-05-21T00:33:36.329Z,11.90
2023-05-21T00:34:36.374Z,10.90
2023-05-21T00:35:36.575Z,11.80
2023-05-21T00:36:36.305Z,11.20
2023-05-21T00:37:36.288Z,10.90
2023-05-21T00:38:36.290Z,11.40
2023-05-21T00:39:36.551Z,11.20
2023-05-21T00:40:36.680Z,10.50
2023-05-21T00:41:36.228Z,11.60
2023-05-21T00:42:36.220Z,10.80
2023-05-21T00:43:36.199Z,11.30
2023-05-21T00:44:36.227Z,11.60
2023-05-21T00:45:36.373Z,11.50
2023-05-21T00:46:36.177Z,10.40
2023-05-21T00:47:36.211Z,10.70
2023-05-21T00:48:36.161Z,10.20
2023-05-21T00:49:36.146Z,10.90
2023-05-21T00:50:36.129Z,11.50
2023-05-21T00:51:36.197Z,10.80
2023-05-21T00:52:36.110Z,9.90
2023-05-21T00:53:36.088Z,10.90
2023-05-21T00:54:36.193Z,10.00
2023-05-21T00:55:36.699Z,10.70
2023-05-21T00:56:36.061Z,11.00
2023-05-21T00:57:36.034Z,11.70
2023-05-21T00:58:36.057Z,11.90
2023-05-21T00:59:36.007Z,12.10
2023-05-21T01:00:36.484Z,13.00
2023-05-21T01:01:36.136Z,12.60
2023-05-21T01:02:36.041Z,12.70
2023-05-21T01:03:35.985Z,12.20
2023-05-21T01:04:35.971Z,11.90
2023-05-21T01:05:36.151Z,12.20
2023-05-21T01:06:35.970Z,12.30
2023-05-21T01:07:35.939Z,11.30
2023-05-21T01:08:35.939Z,11.80
2023-05-21T01:09:35.915Z,11.00
2023-05-21T01:10:35.928Z,11.30
2023-05-21T01:11:35.941Z,10.70
2023-05-21T01:12:35.892Z,11.40
2023-05-21T01:13:35.888Z,12.10
2023-05-21T01:14:35.880Z,11.40
2023-05-21T01:15:36.072Z,11.80
2023-05-21T01:16:35.891Z,11.70
2023-05-21T01:17:35.871Z,10.90
2023-05-21T01:18:35.868Z,11.80
2023-05-21T01:19:35.923Z,11.90
2023-05-21T01:20:36.029Z,11.50
2023-05-21T01:21:35.918Z,11.20
2023-05-21T01:22:36.006Z,11.30
2023-05-21T01:23:35.760Z,10.50
2023-05-21T01:24:35.743Z,11.40
2023-05-21T01:25:36.078Z,11.20
2023-05-21T01:26:35.723Z,11.10
2023-05-21T01:27:35.685Z,11.30
2023-05-21T01:28:35.740Z,10.40
2023-05-21T01:29:35.688Z,10.00
2023-05-21T01:30:35.704Z,11.30
2023-05-21T01:31:35.668Z,10.70
2023-05-21T01:32:35.723Z,9.70
2023-05-21T01:33:35.690Z,10.40
2023-05-21T01:34:35.621Z,10.40
2023-05-21T01:35:35.886Z,10.10
2023-05-21T01:36:35.640Z,10.80
2023-05-21T01:37:35.572Z,10.80
2023-05-21T01:38:35.612Z,10.70
2023-05-21T01:39:35.584Z,10.20
2023-05-21T01:40:35.630Z,9.90
2023-05-21T01:41:35.536Z,10.80
2023-05-21T01:42:35.692Z,10.50
2023-05-21T01:43:35.586Z,10.90
2023-05-21T01:44:35.513Z,10.30
2023-05-21T01:45:35.760Z,10.50
2023-05-21T01:46:35.568Z,10.70
2023-05-21T01:47:35.652Z,11.20
2023-05-21T01:48:35.473Z,10.50
2023-05-21T01:49:35.447Z,10.40
2023-05-21T01:50:35.452Z,11.50
2023-05-21T01:51:35.461Z,10.90
2023-05-21T01:52:35.410Z,10.60
2023-05-21T01:53:35.469Z,10.80
2023-05-21T01:54:35.391Z,10.60
2023-05-21T01:55:36.303Z,11.40
2023-05-21T01:56:35.434Z,10.40
2023-05-21T01:57:35.395Z,10.60
2023-05-21T01:58:35.470Z,10.30
2023-05-21T01:59:35.366Z,10.50
2023-05-21T02:00:35.336Z,11.50
2023-05-21T02:01:35.597Z,11.30
2023-05-21T02:02:35.347Z,10.70
2023-05-21T02:03:35.346Z,10.30
2023-05-21T02:04:35.425Z,10.90
2023-05-21T02:05:35.808Z,11.00
2023-05-21T02:06:35.253Z,11.10
2023-05-21T02:07:35.280Z,10.80
2023-05-21T02:08:35.316Z,10.30
2023-05-21T02:09:35.252Z,10.90
2023-05-21T02:10:35.206Z,10.40
2023-05-21T02:11:35.280Z,10.20
2023-05-21T02:12:35.160Z,10.40
2023-05-21T02:13:35.197Z,10.40
2023-05-21T02:14:35.140Z,10.50
2023-05-21T02:15:35.561Z,10.00
2023-05-21T02:16:35.197Z,10.50
2023-05-21T02:17:35.167Z,9.80
2023-05-21T02:18:35.116Z,11.00
2023-05-21T02:19:35.280Z,10.10
2023-05-21T02:20:35.080Z,10.30
2023-05-21T02:21:35.423Z,9.90
2023-05-21T02:22:35.214Z,10.40
2023-05-21T02:23:35.089Z,10.40
2023-05-21T02:24:35.059Z,10.00
2023-05-21T02:25:35.192Z,10.90
2023-05-21T02:26:35.010Z,9.90
2023-05-21T02:27:35.057Z,10.50
2023-05-21T02:28:35.071Z,10.30
2023-05-21T02:29:35.043Z,10.10
2023-05-21T02:30:34.968Z,10.50
2023-05-21T02:31:35.003Z,10.40
2023-05-21T02:32:35.153Z,10.50
2023-05-21T02:33:34.976Z,11.20
2023-05-21T02:34:34.951Z,10.80
2023-05-21T02:35:35.175Z,11.00
2023-05-21T02:36:34.929Z,10.70
2023-05-21T02:37:34.966Z,10.70
2023-05-21T02:38:34.955Z,10.50
2023-05-21T02:39:34.876Z,11.30
2023-05-21T02:40:34.879Z,10.20
2023-05-21T02:41:34.913Z,9.70
2023-05-21T02:42:34.894Z,10.40
2023-05-21T02:43:34.854Z,10.50
2023-05-21T02:44:34.811Z,11.10
2023-05-21T02:45:35.201Z,11.00
2023-05-21T02:46:34.777Z,11.40
2023-05-21T02:47:34.931Z,10.30
2023-05-21T02:48:34.818Z,10.20
2023-05-21T02:49:34.777Z,10.80
2023-05-21T02:50:35.608Z,11.10
2023-05-21T02:51:34.813Z,11.40
2023-05-21T02:52:34.712Z,11.00
2023-05-21T02:53:34.750Z,10.90
2023-05-21T02:54:34.757Z,11.30
2023-05-21T02:55:35.570Z,11.70
2023-05-21T02:56:34.662Z,10.80
2023-05-21T02:57:34.681Z,10.50
2023-05-21T02:58:34.662Z,10.40
2023-05-21T02:59:34.650Z,11.00
2023-05-21T03:00:34.634Z,11.10
2023-05-21T03:01:34.784Z,10.80
2023-05-21T03:02:34.704Z,11.30
2023-05-21T03:03:35.033Z,10.70
2023-05-21T03:04:34.691Z,10.80
2023-05-21T03:05:34.985Z,11.00
2023-05-21T03:06:34.550Z,10.70
2023-05-21T03:07:34.576Z,10.70
2023-05-21T03:08:34.592Z,10.70
2023-05-21T03:09:34.563Z,10.20
2023-05-21T03:10:34.501Z,10.80
2023-05-21T03:11:34.591Z,10.40
2023-05-21T03:12:34.554Z,10.80
2023-05-21T03:13:34.593Z,10.40
2023-05-21T03:14:34.455Z,11.40
2023-05-21T03:15:34.602Z,10.20
2023-05-21T03:16:34.515Z,10.80
2023-05-21T03:17:34.482Z,10.50
2023-05-21T03:18:34.458Z,10.60
2023-05-21T03:19:34.423Z,10.80
2023-05-21T03:20:34.389Z,10.60
2023-05-21T03:21:34.491Z,10.50
2023-05-21T03:22:34.379Z,10.10
2023-05-21T03:23:34.620Z,10.60
2023-05-21T03:24:34.673Z,10.40
2023-05-21T03:25:34.965Z,10.90
2023-05-21T03:26:34.319Z,10.70
2023-05-21T03:27:34.331Z,10.90
2023-05-21T03:28:34.320Z,11.30
2023-05-21T03:29:34.319Z,11.20
2023-05-21T03:30:34.270Z,11.20
2023-05-21T03:31:34.342Z,11.10
2023-05-21T03:32:34.317Z,10.80
2023-05-21T03:33:34.280Z,10.90
2023-05-21T03:34:34.508Z,10.20
2023-05-21T03:35:34.380Z,11.00
2023-05-21T03:36:34.199Z,10.90
2023-05-21T03:37:34.222Z,10.70
2023-05-21T03:38:36.457Z,11.40
2023-05-21T03:39:34.220Z,11.30
2023-05-21T03:40:34.166Z,11.20
2023-05-21T03:41:34.174Z,11.30
2023-05-21T03:42:34.152Z,11.00
2023-05-21T03:43:34.565Z,10.70
2023-05-21T03:44:34.166Z,10.00
2023-05-21T03:45:34.423Z,10.70
2023-05-21T03:46:34.219Z,10.60
2023-05-21T03:47:34.139Z,10.70
2023-05-21T03:48:34.078Z,10.50
2023-05-21T03:49:34.119Z,11.90
2023-05-21T03:50:34.287Z,11.10
2023-05-21T03:51:34.048Z,10.90
2023-05-21T03:52:34.034Z,10.60
2023-05-21T03:53:34.041Z,10.60
2023-05-21T03:54:34.009Z,10.90
2023-05-21T03:55:34.205Z,11.20
2023-05-21T03:56:34.074Z,11.70
2023-05-21T03:57:33.991Z,11.00
2023-05-21T03:58:33.953Z,11.00
2023-05-21T03:59:33.989Z,11.80
2023-05-21T04:00:33.941Z,11.00
2023-05-21T04:01:34.017Z,11.60
2023-05-21T04:02:34.002Z,11.10
2023-05-21T04:03:34.067Z,11.60
2023-05-21T04:04:34.062Z,11.50
2023-05-21T04:05:34.264Z,11.20
2023-05-21T04:06:33.956Z,11.10
2023-05-21T04:07:33.886Z,10.80
2023-05-21T04:08:33.851Z,10.70
2023-05-21T04:09:35.420Z,11.20
2023-05-21T04:10:34.285Z,10.30
2023-05-21T04:11:33.825Z,10.60
2023-05-21T04:12:33.811Z,11.00
2023-05-21T04:13:33.834Z,9.80
2023-05-21T04:14:33.873Z,10.50
2023-05-21T04:15:33.935Z,10.90
2023-05-21T04:16:33.843Z,10.70
2023-05-21T04:17:33.803Z,10.50
2023-05-21T04:18:33.753Z,10.70
2023-05-21T04:19:33.923Z,10.40
2023-05-21T04:20:33.704Z,10.40
2023-05-21T04:21:33.748Z,10.00
2023-05-21T04:22:33.712Z,10.60
2023-05-21T04:23:33.705Z,10.80
2023-05-21T04:24:33.816Z,10.40
2023-05-21T04:25:34.224Z,10.80
2023-05-21T04:26:34.222Z,10.60
2023-05-21T04:27:33.654Z,10.20
2023-05-21T04:28:33.606Z,10.50
2023-05-21T04:29:33.694Z,10.60
2023-05-21T04:30:33.597Z,10.00
2023-05-21T04:31:33.728Z,10.70
2023-05-21T04:32:33.577Z,10.70
2023-05-21T04:33:33.585Z,11.20
2023-05-21T04:34:33.633Z,11.20
2023-05-21T04:35:34.243Z,10.70
2023-05-21T04:36:33.518Z,10.80
2023-05-21T04:37:33.557Z,11.10
2023-05-21T04:38:33.492Z,11.60
2023-05-21T04:39:33.544Z,11.00
2023-05-21T04:40:33.481Z,11.10
2023-05-21T04:41:33.485Z,11.20
2023-05-21T04:42:33.488Z,11.50
2023-05-21T04:43:33.464Z,11.00
2023-05-21T04:44:33.752Z,10.90
2023-05-21T04:45:33.501Z,11.10
2023-05-21T04:46:33.472Z,11.20
2023-05-21T04:47:33.836Z,10.60
2023-05-21T04:48:33.407Z,10.70
2023-05-21T04:49:33.390Z,10.90
2023-05-21T04:50:33.399Z,11.30
2023-05-21T04:51:33.386Z,11.10
2023-05-21T04:52:33.339Z,10.00
2023-05-21T04:53:33.341Z,10.50
2023-05-21T04:54:33.320Z,10.50
2023-05-21T04:55:33.481Z,10.40
2023-05-21T04:56:33.305Z,10.70
2023-05-21T04:57:33.343Z,11.20
2023-05-21T04:58:33.268Z,11.60
2023-05-21T04:59:33.286Z,11.70
2023-05-21T05:00:33.255Z,11.70
2023-05-21T05:01:33.281Z,10.90
2023-05-21T05:02:33.258Z,10.50
2023-05-21T05:03:33.301Z,11.20
2023-05-21T05:04:33.199Z,11.00
2023-05-21T05:05:33.699Z,10.80
2023-05-21T05:06:33.424Z,10.30
2023-05-21T05:07:33.297Z,10.10
2023-05-21T05:08:33.150Z,10.10
2023-05-21T05:09:33.179Z,10.00
2023-05-21T05:10:33.119Z,10.00
2023-05-21T05:11:33.208Z,10.40
2023-05-21T05:12:33.114Z,10.60
2023-05-21T05:13:33.230Z,10.80
2023-05-21T05:14:33.123Z,9.80
2023-05-21T05:15:33.139Z,10.20
2023-05-21T05:16:33.071Z,10.50
2023-05-21T05:17:33.220Z,10.50
2023-05-21T05:18:33.109Z,9.80
2023-05-21T05:19:33.142Z,10.20
2023-05-21T05:20:33.016Z,9.80
2023-05-21T05:21:33.195Z,10.20
2023-05-21T05:22:33.032Z,9.90
2023-05-21T05:23:33.024Z,10.20
2023-05-21T05:24:32.977Z,10.00
2023-05-21T05:25:33.160Z,10.60
2023-05-21T05:26:33.113Z,10.30
2023-05-21T05:27:33.133Z,9.80
2023-05-21T05:28:33.069Z,9.80
2023-05-21T05:29:32.951Z,10.80
2023-05-21T05:30:33.033Z,10.40
2023-05-21T05:31:33.036Z,10.30
2023-05-21T05:32:32.981Z,10.70
2023-05-21T05:33:32.903Z,10.50
2023-05-21T05:34:32.865Z,10.50
2023-05-21T05:35:32.979Z,10.30
2023-05-21T05:36:32.832Z,10.00
2023-05-21T05:37:32.867Z,10.50
2023-05-21T05:38:32.825Z,10.10
2023-05-21T05:39:32.926Z,10.90
2023-05-21T05:40:33.351Z,10.10
2023-05-21T05:41:32.839Z,10.80
2023-05-21T05:42:32.846Z,10.40
2023-05-21T05:43:32.806Z,10.10
2023-05-21T05:44:32.757Z,10.10
2023-05-21T05:45:32.764Z,10.30
2023-05-21T05:46:32.798Z,9.80
2023-05-21T05:47:32.800Z,10.70
2023-05-21T05:48:32.786Z,9.60
2023-05-21T05:49:32.713Z,10.20
2023-05-21T05:50:32.695Z,10.40
2023-05-21T05:51:32.756Z,9.50
2023-05-21T05:52:32.653Z,11.00
2023-05-21T05:53:32.680Z,10.70
2023-05-21T05:54:32.666Z,9.60
2023-05-21T05:55:32.700Z,10.30
2023-05-21T05:56:32.596Z,10.00
2023-05-21T05:57:32.619Z,10.00
2023-05-21T05:58:32.628Z,10.20
2023-05-21T05:59:32.742Z,10.10
2023-05-21T06:00:32.587Z,10.70
2023-05-21T06:01:32.571Z,9.90
2023-05-21T06:02:32.975Z,10.80
2023-05-21T06:03:32.680Z,9.80
2023-05-21T06:04:32.653Z,10.00
2023-05-21T06:05:32.543Z,10.30
2023-05-21T06:06:32.802Z,10.50
2023-05-21T06:07:32.626Z,10.10
2023-05-21T06:08:32.528Z,10.70
2023-05-21T06:09:32.481Z,11.00
2023-05-21T06:10:32.482Z,10.60
2023-05-21T06:11:32.510Z,10.10
2023-05-21T06:12:32.480Z,10.00
2023-05-21T06:13:32.438Z,10.00
2023-05-21T06:14:32.461Z,10.30
2023-05-21T06:15:32.409Z,10.10
2023-05-21T06:16:32.541Z,10.10
2023-05-21T06:17:32.409Z,10.30
2023-05-21T06:18:32.393Z,9.40
2023-05-21T06:19:32.506Z,10.50
2023-05-21T06:20:32.363Z,10.00
2023-05-21T06:21:32.318Z,9.80
2023-05-21T06:22:32.338Z,9.90
2023-05-21T06:23:32.376Z,9.90
2023-05-21T06:24:32.362Z,9.70
2023-05-21T06:25:32.286Z,9.70
2023-05-21T06:26:32.286Z,10.10
2023-05-21T06:27:32.452Z,9.70
2023-05-21T06:28:32.289Z,9.40
2023-05-21T06:29:32.254Z,10.50
2023-05-21T06:30:32.265Z,9.80
2023-05-21T06:31:32.212Z,9.90
2023-05-21T06:32:32.341Z,9.30
2023-05-21T06:33:32.258Z,9.40
2023-05-21T06:34:32.189Z,9.90
2023-05-21T06:35:32.227Z,10.30
2023-05-21T06:36:32.177Z,9.50
2023-05-21T06:37:32.171Z,9.60
2023-05-21T06:38:32.153Z,9.70
2023-05-21T06:39:32.119Z,8.90
2023-05-21T06:40:32.129Z,9.50
2023-05-21T06:41:32.107Z,9.50
2023-05-21T06:42:32.086Z,10.20
2023-05-21T06:43:32.070Z,9.80
2023-05-21T06:44:32.127Z,9.40
2023-05-21T06:45:32.164Z,9.30
2023-05-21T06:46:32.223Z,9.20
2023-05-21T06:47:32.245Z,9.50
2023-05-21T06:48:32.400Z,9.50
2023-05-21T06:49:32.181Z,9.60
2023-05-21T06:50:32.028Z,9.40
2023-05-21T06:51:32.024Z,9.60
2023-05-21T06:52:32.300Z,10.00
2023-05-21T06:53:31.996Z,9.40
2023-05-21T06:54:31.995Z,9.20
2023-05-21T06:55:31.974Z,9.10
2023-05-21T06:56:31.955Z,9.50
2023-05-21T06:57:31.916Z,9.20
2023-05-21T06:58:31.995Z,9.40
2023-05-21T06:59:31.945Z,9.80
2023-05-21T07:00:31.913Z,9.40
2023-05-21T07:01:31.918Z,9.00
2023-05-21T07:02:31.985Z,9.20
2023-05-21T07:03:31.986Z,9.40
2023-05-21T07:04:31.883Z,10.00
2023-05-21T07:05:31.842Z,9.20
2023-05-21T07:06:31.834Z,9.00
2023-05-21T07:07:32.008Z,10.50
2023-05-21T07:08:31.898Z,9.60
2023-05-21T07:09:31.795Z,9.80
2023-05-21T07:10:31.819Z,9.10
2023-05-21T07:11:31.776Z,9.80
2023-05-21T07:12:31.809Z,9.50
2023-05-21T07:13:31.724Z,9.40
2023-05-21T07:14:31.735Z,9.50
2023-05-21T07:15:31.776Z,9.80
2023-05-21T07:16:31.880Z,9.20
2023-05-21T07:17:31.726Z,9.30
2023-05-21T07:18:31.822Z,8.60
2023-05-21T07:19:31.845Z,9.20
2023-05-21T07:20:31.680Z,9.80
2023-05-21T07:21:31.676Z,9.20
2023-05-21T07:22:31.642Z,8.90
2023-05-21T07:23:31.612Z,9.60
2023-05-21T07:24:31.813Z,9.30
2023-05-21T07:25:31.587Z,9.20
2023-05-21T07:26:31.658Z,8.90
2023-05-21T07:27:31.561Z,9.10
2023-05-21T07:28:31.727Z,9.50
2023-05-21T07:29:32.138Z,9.70
2023-05-21T07:30:31.699Z,8.90
2023-05-21T07:31:32.053Z,8.90
2023-05-21T07:32:31.548Z,9.10
2023-05-21T07:33:31.544Z,9.00
2023-05-21T07:34:31.505Z,9.60
2023-05-21T07:35:31.573Z,9.30
2023-05-21T07:36:31.542Z,9.50
2023-05-21T07:37:31.584Z,8.90
2023-05-21T07:38:31.467Z,9.40
2023-05-21T07:39:31.466Z,9.50
2023-05-21T07:40:31.535Z,9.70
2023-05-21T07:41:31.462Z,9.20
2023-05-21T07:42:31.451Z,9.20
2023-05-21T07:43:31.421Z,9.50
2023-05-21T07:44:31.404Z,9.10
2023-05-21T07:45:31.369Z,8.90
2023-05-21T07:46:31.447Z,8.90
2023-05-21T07:47:31.448Z,8.70
2023-05-21T07:48:32.553Z,8.90
2023-05-21T07:49:31.356Z,9.30
2023-05-21T07:50:31.375Z,9.40
2023-05-21T07:51:31.568Z,9.00
2023-05-21T07:52:31.859Z,9.00
2023-05-21T07:53:31.260Z,9.80
2023-05-21T07:54:31.291Z,9.70
2023-05-21T07:55:31.390Z,9.20
2023-05-21T07:56:31.311Z,8.70
2023-05-21T07:57:31.244Z,9.10
2023-05-21T07:58:31.256Z,8.70
2023-05-21T07:59:31.256Z,8.70
2023-05-21T08:00:31.206Z,9.50
2023-05-21T08:01:31.329Z,8.90
2023-05-21T08:02:31.313Z,8.90
2023-05-21T08:03:31.340Z,8.80
2023-05-21T08:04:31.239Z,9.50
2023-05-21T08:05:31.185Z,9.10
2023-05-21T08:06:31.214Z,9.30
2023-05-21T08:07:31.132Z,8.50
2023-05-21T08:08:31.902Z,9.60
2023-05-21T08:09:31.110Z,9.00
2023-05-21T08:10:31.126Z,9.00
2023-05-21T08:11:31.065Z,9.40
2023-05-21T08:12:31.101Z,9.30
2023-05-21T08:13:31.113Z,9.00
2023-05-21T08:14:31.257Z,9.30
2023-05-21T08:15:31.048Z,9.00
2023-05-21T08:16:31.053Z,9.10
2023-05-21T08:17:31.033Z,8.60
2023-05-21T08:18:31.028Z,9.20
2023-05-21T08:19:31.140Z,9.20
2023-05-21T08:20:31.005Z,9.10
2023-05-21T08:21:30.970Z,9.10
2023-05-21T08:22:31.011Z,9.10
2023-05-21T08:23:30.949Z,9.20
2023-05-21T08:24:30.980Z,9.10
2023-05-21T08:25:30.918Z,8.80
2023-05-21T08:26:30.950Z,8.80
2023-05-21T08:27:30.909Z,9.00
2023-05-21T08:28:30.947Z,9.10
2023-05-21T08:29:31.098Z,9.20
2023-05-21T08:30:30.951Z,9.00
2023-05-21T08:31:30.876Z,8.90
2023-05-21T08:32:30.910Z,9.10
2023-05-21T08:33:30.900Z,9.40
2023-05-21T08:34:30.948Z,8.80
2023-05-21T08:35:30.818Z,9.40
2023-05-21T08:36:30.819Z,8.60
2023-05-21T08:37:30.781Z,9.00
2023-05-21T08:38:30.857Z,9.40
2023-05-21T08:39:30.760Z,8.80
2023-05-21T08:40:30.774Z,8.70
2023-05-21T08:41:30.732Z,8.80
2023-05-21T08:42:37.142Z,9.00
2023-05-21T08:43:31.724Z,8.90
2023-05-21T08:44:30.752Z,8.00
2023-05-21T08:45:30.740Z,8.60
2023-05-21T08:46:30.739Z,8.50
2023-05-21T08:47:30.768Z,8.90
2023-05-21T08:48:30.729Z,8.70
2023-05-21T08:49:30.657Z,8.20
2023-05-21T08:50:30.790Z,8.70
2023-05-21T08:51:30.759Z,8.60
2023-05-21T08:52:30.675Z,9.30
2023-05-21T08:53:30.600Z,9.40
2023-05-21T08:54:30.625Z,9.00
2023-05-21T08:55:30.563Z,9.00
2023-05-21T08:56:30.592Z,9.00
2023-05-21T08:57:30.540Z,8.40
2023-05-21T08:58:30.551Z,8.70
2023-05-21T08:59:30.526Z,8.50
2023-05-21T09:00:30.593Z,9.00
2023-05-21T09:01:30.572Z,8.40
2023-05-21T09:02:30.583Z,8.60
2023-05-21T09:03:30.654Z,8.90
2023-05-21T09:04:30.542Z,8.40
2023-05-21T09:05:30.470Z,9.10
2023-05-21T09:06:30.458Z,8.70
2023-05-21T09:07:30.428Z,8.80
2023-05-21T09:08:30.473Z,8.60
2023-05-21T09:09:30.430Z,8.30
2023-05-21T09:10:30.425Z,8.20
2023-05-21T09:11:30.727Z,8.20
2023-05-21T09:12:30.713Z,8.80
2023-05-21T09:13:30.404Z,9.00
2023-05-21T09:14:30.376Z,8.70
2023-05-21T09:15:30.328Z,9.00
2023-05-21T09:16:30.433Z,8.30
2023-05-21T09:17:30.372Z,8.60
2023-05-21T09:18:30.372Z,8.30
2023-05-21T09:19:30.393Z,8.80
2023-05-21T09:20:30.348Z,8.60
2023-05-21T09:21:30.297Z,8.30
2023-05-21T09:22:30.278Z,8.50
2023-05-21T09:23:30.265Z,7.90
2023-05-21T09:24:30.333Z,8.40
2023-05-21T09:25:30.242Z,8.30
2023-05-21T09:26:30.256Z,8.60
2023-05-21T09:27:30.204Z,8.00
2023-05-21T09:28:30.263Z,8.60
2023-05-21T09:29:30.187Z,8.30
2023-05-21T09:30:32.439Z,8.50
2023-05-21T09:31:30.708Z,8.20
2023-05-21T09:32:30.695Z,7.70
2023-05-21T09:33:30.215Z,8.50
2023-05-21T09:34:34.324Z,8.30
2023-05-21T09:35:30.157Z,7.80
2023-05-21T09:36:30.689Z,8.00
2023-05-21T09:37:30.100Z,8.00
2023-05-21T09:38:30.134Z,8.30
2023-05-21T09:39:30.111Z,8.10
2023-05-21T09:40:30.166Z,7.90
2023-05-21T09:41:30.048Z,8.20
2023-05-21T09:42:30.060Z,8.20
2023-05-21T09:43:30.095Z,8.10
2023-05-21T09:44:30.107Z,8.10
2023-05-21T09:45:30.013Z,7.80
2023-05-21T09:46:30.178Z,8.60
2023-05-21T09:47:30.057Z,8.30
2023-05-21T09:48:30.026Z,8.30
2023-05-21T09:49:29.984Z,8.50
2023-05-21T09:50:30.012Z,8.60
2023-05-21T09:51:29.959Z,8.20
2023-05-21T09:52:30.064Z,7.80
2023-05-21T09:53:29.932Z,8.00
2023-05-21T09:54:29.943Z,7.80
2023-05-21T09:55:29.933Z,8.60
2023-05-21T09:56:29.899Z,8.40
2023-05-21T09:57:29.876Z,8.10
2023-05-21T09:58:29.879Z,7.90
2023-05-21T09:59:29.846Z,8.00
2023-05-21T10:00:29.899Z,8.40
2023-05-21T10:01:29.857Z,8.00
2023-05-21T10:02:29.865Z,7.80
2023-05-21T10:03:29.815Z,8.50
2023-05-21T10:04:29.872Z,8.60
2023-05-21T10:05:29.809Z,7.40
2023-05-21T10:06:29.832Z,7.60
2023-05-21T10:07:30.575Z,8.40
2023-05-21T10:08:29.764Z,8.50
2023-05-21T10:09:29.822Z,8.20
2023-05-21T10:10:29.747Z,8.30
2023-05-21T10:11:29.733Z,7.90
2023-05-21T10:12:29.951Z,8.40
2023-05-21T10:13:30.495Z,8.60
2023-05-21T10:14:29.811Z,8.50
2023-05-21T10:15:29.827Z,8.20
2023-05-21T10:16:29.749Z,8.80
2023-05-21T10:17:29.731Z,8.40
2023-05-21T10:18:29.701Z,7.40
2023-05-21T10:19:29.746Z,7.80
2023-05-21T10:20:29.659Z,8.30
2023-05-21T10:21:29.625Z,8.40
2023-05-21T10:22:29.593Z,8.20
2023-05-21T10:23:29.604Z,8.40
2023-05-21T10:24:29.621Z,8.40
2023-05-21T10:25:29.589Z,7.90
2023-05-21T10:26:29.585Z,8.10
2023-05-21T10:27:31.991Z,8.00
2023-05-21T10:28:29.547Z,8.40
2023-05-21T10:29:29.590Z,7.80
2023-05-21T10:30:29.541Z,8.70
2023-05-21T10:31:29.504Z,8.40
2023-05-21T10:32:29.600Z,8.20
2023-05-21T10:33:29.985Z,7.70
2023-05-21T10:34:29.693Z,8.10
2023-05-21T10:35:29.508Z,7.80
2023-05-21T10:36:29.424Z,8.40
2023-05-21T10:37:29.480Z,8.40
2023-05-21T10:38:29.542Z,8.30
2023-05-21T10:39:29.435Z,8.70
2023-05-21T10:40:29.402Z,7.90
2023-05-21T10:41:29.477Z,8.20
2023-05-21T10:42:29.464Z,8.10
2023-05-21T10:43:29.388Z,8.40
2023-05-21T10:44:29.344Z,8.70
2023-05-21T10:45:29.401Z,8.10
2023-05-21T10:46:29.368Z,7.80
2023-05-21T10:47:29.424Z,8.10
2023-05-21T10:48:29.294Z,7.80
2023-05-21T10:49:29.321Z,8.00
2023-05-21T10:50:29.424Z,8.30
2023-05-21T10:51:29.339Z,7.60
2023-05-21T10:52:29.285Z,8.30
2023-05-21T10:53:29.330Z,7.80
2023-05-21T10:54:29.244Z,7.80
2023-05-21T10:55:29.301Z,7.70
2023-05-21T10:56:29.240Z,7.80
2023-05-21T10:57:29.239Z,7.80
2023-05-21T10:58:30.007Z,7.90
2023-05-21T10:59:29.191Z,7.80
2023-05-21T11:00:29.262Z,8.00
2023-05-21T11:01:29.323Z,7.60
2023-05-21T11:02:29.309Z,7.60
2023-05-21T11:03:29.311Z,8.00
2023-05-21T11:04:29.140Z,8.10
2023-05-21T11:05:29.298Z,7.90
2023-05-21T11:06:29.122Z,8.20
2023-05-21T11:07:29.125Z,8.40
2023-05-21T11:08:29.085Z,7.50
2023-05-21T11:09:29.120Z,7.60
2023-05-21T11:10:29.048Z,7.70
2023-05-21T11:11:29.094Z,7.70
2023-05-21T11:12:29.077Z,8.00
2023-05-21T11:13:29.076Z,7.60
2023-05-21T11:14:29.195Z,7.50
2023-05-21T11:15:29.337Z,8.00
2023-05-21T11:16:29.037Z,7.70
2023-05-21T11:17:29.021Z,7.30
2023-05-21T11:18:28.979Z,7.60
2023-05-21T11:19:29.805Z,7.40
2023-05-21T11:20:29.078Z,7.50
2023-05-21T11:21:28.997Z,7.40
2023-05-21T11:22:29.012Z,7.40
2023-05-21T11:23:28.925Z,7.30
2023-05-21T11:24:28.913Z,7.00
2023-05-21T11:25:28.952Z,7.30
2023-05-21T11:26:28.975Z,7.10
2023-05-21T11:27:28.991Z,7.00
2023-05-21T11:28:28.856Z,7.00
2023-05-21T11:29:28.875Z,6.90
2023-05-21T11:30:28.841Z,7.30
2023-05-21T11:31:28.941Z,7.60
2023-05-21T11:32:29.009Z,6.60
2023-05-21T11:33:28.940Z,7.00
2023-05-21T11:34:28.963Z,6.80
2023-05-21T11:35:29.245Z,7.00
2023-05-21T11:36:30.120Z,7.00
2023-05-21T11:37:28.784Z,7.40
2023-05-21T11:38:28.896Z,6.60
2023-05-21T11:39:28.742Z,7.00
2023-05-21T11:40:28.786Z,7.20
2023-05-21T11:41:28.823Z,7.10
2023-05-21T11:42:28.722Z,7.30
2023-05-21T11:43:28.831Z,6.60
2023-05-21T11:44:28.670Z,7.20
2023-05-21T11:45:28.691Z,7.40
2023-05-21T11:46:28.706Z,6.90
2023-05-21T11:47:28.821Z,6.80
2023-05-21T11:48:30.552Z,7.60
2023-05-21T11:49:28.671Z,7.00
2023-05-21T11:50:28.650Z,6.80
2023-05-21T11:51:28.656Z,7.00
2023-05-21T11:52:28.611Z,7.70
2023-05-21T11:53:28.875Z,7.50
2023-05-21T11:54:28.662Z,7.00
2023-05-21T11:55:28.731Z,7.00
2023-05-21T11:56:28.541Z,6.70
2023-05-21T11:57:28.590Z,7.20
2023-05-21T11:58:28.564Z,7.10
2023-05-21T11:59:28.693Z,6.70
2023-05-21T12:00:28.588Z,7.30
2023-05-21T12:01:28.506Z,7.30
2023-05-21T12:02:28.670Z,7.40
2023-05-21T12:03:28.575Z,7.00
2023-05-21T12:04:28.477Z,7.10
2023-05-21T12:05:28.497Z,6.80
2023-05-21T12:06:28.468Z,6.50
2023-05-21T12:07:28.498Z,6.30
2023-05-21T12:08:28.416Z,6.30
2023-05-21T12:09:28.619Z,6.00
2023-05-21T12:10:28.465Z,5.80
2023-05-21T12:11:28.436Z,5.50
2023-05-21T12:12:35.561Z,5.20
2023-05-21T12:13:29.520Z,6.10
2023-05-21T12:14:28.400Z,5.90
2023-05-21T12:15:28.632Z,5.50
2023-05-21T12:16:28.377Z,5.20
2023-05-21T12:17:28.403Z,6.00
2023-05-21T12:18:28.337Z,5.40
2023-05-21T12:19:28.446Z,5.90
2023-05-21T12:20:28.708Z,5.80
2023-05-21T12:21:28.304Z,5.20
2023-05-21T12:22:28.314Z,5.80
2023-05-21T12:23:28.315Z,4.80
2023-05-21T12:24:28.264Z,5.10
2023-05-21T12:25:28.411Z,4.70
2023-05-21T12:26:28.269Z,4.70
2023-05-21T12:27:28.255Z,4.50
2023-05-21T12:28:28.229Z,4.50
2023-05-21T12:29:28.285Z,4.50
2023-05-21T12:30:28.224Z,4.30
2023-05-21T12:31:28.644Z,4.60
2023-05-21T12:32:28.303Z,4.80
2023-05-21T12:33:28.178Z,4.80
2023-05-21T12:34:28.146Z,4.70
2023-05-21T12:35:28.190Z,4.70
2023-05-21T12:36:28.366Z,4.60
2023-05-21T12:37:28.349Z,4.80
2023-05-21T12:38:28.104Z,4.80
2023-05-21T12:39:28.207Z,4.10
2023-05-21T12:40:28.109Z,4.40
2023-05-21T12:41:28.099Z,4.70
2023-05-21T12:42:28.030Z,4.50
2023-05-21T12:43:28.062Z,4.90
2023-05-21T12:44:28.063Z,4.40
2023-05-21T12:45:28.088Z,4.70
2023-05-21T12:46:28.070Z,4.50
2023-05-21T12:47:28.081Z,4.70
2023-05-21T12:48:27.992Z,4.00
2023-05-21T12:49:28.152Z,4.60
2023-05-21T12:50:27.956Z,4.80
2023-05-21T12:51:27.950Z,4.50
2023-05-21T12:52:27.936Z,4.60
2023-05-21T12:53:28.009Z,4.40
2023-05-21T12:54:27.916Z,4.60
2023-05-21T12:55:27.961Z,4.80
2023-05-21T12:56:28.004Z,4.60
2023-05-21T12:57:28.552Z,4.30
2023-05-21T12:58:27.876Z,4.70
2023-05-21T12:59:27.962Z,4.60
2023-05-21T13:00:27.847Z,4.70
2023-05-21T13:01:28.186Z,4.40
2023-05-21T13:02:27.938Z,4.50
2023-05-21T13:03:27.826Z,4.70
2023-05-21T13:04:27.886Z,4.70
2023-05-21T13:05:27.821Z,4.20
2023-05-21T13:06:27.847Z,4.00